Velero IV — WDD6435 — position and weather

sailwx.info

Track history (hours):
 
Tides and Currents Weather Stations Pressure Air Temp Water Temp Dewpoint Dewpoint Depression Visibility Wind Speed Wind Dir Waves Ship Positions

Velero IV

Owner: Velero IV Charters, LLC, Edmonds, WA. More information available from US FCC via Universal Licensing System and Coast Guard Vessel Documentation Center.

Last reported at 2018-Jun-26 19:06 UTC. Time now 2018-Jul-17 09:12 UTC.
Position N 54°44' W 131°09'.
Warning: this ship's position is 20 days out of date.

Length 34 m; draft 4 m.

Type: Cargo ship. MMSI: 367172910.

Date/timePositionNaut miles runAvg speedWind from/ knotsBaromVisibWave heightAir tempDewpointWater temp
2018-Jun-26 19:06N 54°44' W 131°09'2 8.2
2018-Jun-26 18:53N 54°44' W 131°06'4 8.2
2018-Jun-26 18:26N 54°43' W 131°00'4 8.5
2018-Jun-26 18:00N 54°42' W 130°54'4 8.5
2018-Jun-26 17:29N 54°40' W 130°47'8 8.3
2018-Jun-26 16:30N 54°32' W 130°42'4 8.9
2018-Jun-26 16:00N 54°28' W 130°40'4 8.6
2018-Jun-26 15:30N 54°24' W 130°37'4 8.7
2018-Jun-26 15:00N 54°20' W 130°35'4 8.5
2018-Jun-26 14:30N 54°16' W 130°32'4 8.2
2018-Jun-26 14:00N 54°13' W 130°28'4 8.7
2018-Jun-26 13:30N 54°09' W 130°24'5 9.0
2018-Jun-26 13:00N 54°06' W 130°19'4 8.5
2018-Jun-26 12:30N 54°02' W 130°15'4 8.9
2018-Jun-26 12:00N 53°58' W 130°12'4 8.6
2018-Jun-26 11:30N 53°54' W 130°09'4 9.0
2018-Jun-26 11:00N 53°51' W 130°03'4 8.5
2018-Jun-26 10:30N 53°48' W 129°58'4 8.2
2018-Jun-26 10:00N 53°45' W 129°53'84 8.1
2018-Jun-25 23:41N 52°38' W 128°31'3 9.8
2018-Jun-25 23:25N 52°36' W 128°29'4 9.3
2018-Jun-25 22:59N 52°32' W 128°28'4 9.3
2018-Jun-25 22:30N 52°27' W 128°28'5 9.0
2018-Jun-25 22:00N 52°23' W 128°30'5 8.7
2018-Jun-25 21:27N 52°18' W 128°29'4 8.8
2018-Jun-25 21:00N 52°16' W 128°24'5 9.5
2018-Jun-25 20:30N 52°15' W 128°17'5 8.9
2018-Jun-25 19:59N 52°13' W 128°10'4 7.1
2018-Jun-25 19:29N 52°10' W 128°08'4 8.9
2018-Jun-25 19:00N 52°06' W 128°07'5 9.3
2018-Jun-25 18:30N 52°05' W 127°60'4 7.9
2018-Jun-25 18:00N 52°01' W 127°56'4 8.8
2018-Jun-25 17:30N 51°57' W 127°57'5 9.1
2018-Jun-25 17:00N 51°53' W 127°57'5 9.1
2018-Jun-25 16:30N 51°48' W 127°56'4 8.9
2018-Jun-25 16:00N 51°44' W 127°56'5 9.3
2018-Jun-25 15:30N 51°39' W 127°54'5 9.2
2018-Jun-25 15:01N 51°35' W 127°52'5 9.2
2018-Jun-25 14:30N 51°30' W 127°51'5 9.3
2018-Jun-25 14:00N 51°25' W 127°52'5 9.0
2018-Jun-25 13:30N 51°21' W 127°52'4 8.8
2018-Jun-25 13:01N 51°16' W 127°53'4 8.6
2018-Jun-25 12:30N 51°12' W 127°51'6 8.9
2018-Jun-25 11:52N 51°07' W 127°46'3 9.4
2018-Jun-25 11:30N 51°05' W 127°42'5 9.8
2018-Jun-25 11:01N 51°01' W 127°37'5 9.7
2018-Jun-25 10:31N 50°58' W 127°31'510.7
2018-Jun-25 10:01N 50°55' W 127°25'5 9.8
2018-Jun-25 09:29N 50°52' W 127°18'4 9.4
2018-Jun-25 09:00N 50°50' W 127°12'5 9.0
2018-Jun-25 08:30N 50°47' W 127°06'4 8.8
2018-Jun-25 08:01N 50°45' W 126°60'8 8.7
2018-Jun-25 07:08N 50°40' W 126°51'1 8.3
2018-Jun-25 06:57N 50°39' W 126°49'4 8.5
2018-Jun-25 06:27N 50°36' W 126°44'5 7.9
2018-Jun-25 05:46N 50°32' W 126°39'4 9.4
2018-Jun-25 05:23N 50°31' W 126°33'4 9.5
2018-Jun-25 04:59N 50°30' W 126°27'4010.2
2018-Jun-25 01:07N 50°20' W 125°27'110.0
2018-Jun-25 01:00N 50°20' W 125°26'610.9
2018-Jun-25 00:30N 50°15' W 125°23'510.1
2018-Jun-25 00:00N 50°10' W 125°22'4 8.4
2018-Jun-24 23:30N 50°06' W 125°18'4 8.9
2018-Jun-24 23:00N 50°03' W 125°14'4 8.2
2018-Jun-24 22:30N 49°59' W 125°11'4 8.7
2018-Jun-24 22:00N 49°56' W 125°06'4 8.9
2018-Jun-24 21:30N 49°53' W 125°01'5 9.3
2018-Jun-24 21:00N 49°50' W 124°56'5 9.1
2018-Jun-24 20:30N 49°47' W 124°50'5 9.3
2018-Jun-24 20:00N 49°44' W 124°45'5 9.5
2018-Jun-24 19:30N 49°41' W 124°39'5 9.5
2018-Jun-24 18:59N 49°38' W 124°33'5 9.5
2018-Jun-24 18:30N 49°36' W 124°27'14 9.6
2018-Jun-24 17:05N 49°29' W 124°09'1 9.1
2018-Jun-24 17:00N 49°29' W 124°08'24 9.4
2018-Jun-24 14:25N 49°14' W 123°38'4 9.8
2018-Jun-24 14:00N 49°11' W 123°33'5 9.7
2018-Jun-24 13:27N 49°07' W 123°27'4 9.5
2018-Jun-24 12:59N 49°05' W 123°22'4 8.9
2018-Jun-24 12:30N 49°02' W 123°17'4 9.1
2018-Jun-24 12:00N 48°59' W 123°12'4 8.5
2018-Jun-24 11:30N 48°56' W 123°07'10 9.3
2018-Jun-24 10:27N 48°50' W 122°55'510.0
2018-Jun-24 09:55N 48°47' W 122°49'5 9.6
2018-Jun-24 09:27N 48°43' W 122°44'4 9.6
2018-Jun-24 09:00N 48°39' W 122°43'5 9.9
2018-Jun-24 08:30N 48°35' W 122°45'510.3
2018-Jun-24 08:00N 48°29' W 122°44'510.0
2018-Jun-24 07:30N 48°24' W 122°44'6 9.4
2018-Jun-24 06:51N 48°18' W 122°46'4 8.6
2018-Jun-24 06:26N 48°15' W 122°47'20 8.1
2018-Jun-24 03:56N 47°57' W 122°32'4 8.9
2018-Jun-24 03:30N 47°55' W 122°28'4 8.6
2018-Jun-24 03:00N 47°50' W 122°27'4 8.0
2018-Jun-24 02:30N 47°47' W 122°25'4 8.3
2018-Jun-24 02:00N 47°42' W 122°25'3 4.9
2018-Jun-24 01:28N 47°40' W 122°24'1 1.5
2018-Jun-24 01:00N 47°40' W 122°23'0 0.3
2018-Jun-24 00:29N 47°39' W 122°23'0 0.0
2018-Jun-24 00:00N 47°39' W 122°23'0 0.0
2018-Jun-23 23:27N 47°39' W 122°23'0 0.0
2018-Jun-23 23:00N 47°39' W 122°23'0 0.0
2018-Jun-23 22:28N 47°39' W 122°23'0 0.0
2018-Jun-23 21:58N 47°39' W 122°23'0 0.0
2018-Jun-23 21:28N 47°39' W 122°23'0 0.0
2018-Jun-23 20:59N 47°39' W 122°23'0 0.0
2018-Jun-23 20:29N 47°39' W 122°23'0 0.0
2018-Jun-23 19:59N 47°39' W 122°23'0 0.0
2018-Jun-23 19:30N 47°39' W 122°23'0 0.0
2018-Jun-23 19:00N 47°39' W 122°23'0 0.0
2018-Jun-23 18:30N 47°39' W 122°23'0 0.0
2018-Jun-23 17:58N 47°39' W 122°23'0 0.0
2018-Jun-23 17:25N 47°39' W 122°23'0 0.0
2018-Jun-23 16:58N 47°39' W 122°23'0 0.0
2018-Jun-23 16:29N 47°39' W 122°23'0 0.0
2018-Jun-23 15:59N 47°39' W 122°23'0 0.0
2018-Jun-23 15:29N 47°39' W 122°23'0 0.0
2018-Jun-23 15:00N 47°39' W 122°23'0 0.0
2018-Jun-23 14:30N 47°39' W 122°23'0 0.0
2018-Jun-23 14:00N 47°39' W 122°23'0 0.0
2018-Jun-23 13:28N 47°39' W 122°23'0 0.0
2018-Jun-23 12:58N 47°39' W 122°23'0 0.0
2018-Jun-23 12:28N 47°39' W 122°23'0 0.0
2018-Jun-23 11:59N 47°39' W 122°23'0 0.0
2018-Jun-23 11:29N 47°39' W 122°23'0 0.0
2018-Jun-23 10:59N 47°39' W 122°23'0 0.0
2018-Jun-23 10:30N 47°39' W 122°23'0 0.0
2018-Jun-23 10:00N 47°39' W 122°23'0 0.0
2018-Jun-23 09:30N 47°39' W 122°23'0 0.0
2018-Jun-23 08:58N 47°39' W 122°23'0 0.0
2018-Jun-23 08:28N 47°39' W 122°23'0 0.0
2018-Jun-23 07:58N 47°39' W 122°23'0 0.0
2018-Jun-23 07:29N 47°39' W 122°23'0 0.0
2018-Jun-23 06:59N 47°39' W 122°23'0 0.0
2018-Jun-23 06:29N 47°39' W 122°23'0 0.0
2018-Jun-23 06:00N 47°39' W 122°23'0 0.0
2018-Jun-23 05:30N 47°39' W 122°23'0 0.0
2018-Jun-23 05:00N 47°39' W 122°23'0 0.0
2018-Jun-23 04:28N 47°39' W 122°23'0 0.0
2018-Jun-23 03:58N 47°39' W 122°23'0 0.0
2018-Jun-23 03:28N 47°39' W 122°23'0 0.0
2018-Jun-23 02:59N 47°39' W 122°23'0 0.0
2018-Jun-23 02:29N 47°39' W 122°23'0 0.0
2018-Jun-23 01:59N 47°39' W 122°23'0 0.0
2018-Jun-23 01:30N 47°39' W 122°23'0 0.0
2018-Jun-23 01:00N 47°39' W 122°23'0 0.0
2018-Jun-23 00:30N 47°39' W 122°23'0 0.0
2018-Jun-22 23:58N 47°39' W 122°23'0 0.0
2018-Jun-22 23:28N 47°39' W 122°23'0 0.0
2018-Jun-22 22:58N 47°39' W 122°23'0 0.0
2018-Jun-22 22:29N 47°39' W 122°23'0 0.0
2018-Jun-22 21:59N 47°39' W 122°23'0 0.0
2018-Jun-22 21:29N 47°39' W 122°23'0 0.5
2018-Jun-22 21:00N 47°39' W 122°23'0 0.0
2018-Jun-22 20:30N 47°39' W 122°23'0 0.0
2018-Jun-22 20:00N 47°39' W 122°23'0 0.0
2018-Jun-22 19:28N 47°39' W 122°23'0 0.0
2018-Jun-22 18:58N 47°39' W 122°23'0 0.0
2018-Jun-22 18:28N 47°39' W 122°23'0 0.0
2018-Jun-22 17:59N 47°39' W 122°23'0 0.0
2018-Jun-22 17:29N 47°39' W 122°23'0 0.0
2018-Jun-22 16:59N 47°39' W 122°23'0 0.0
2018-Jun-22 16:30N 47°39' W 122°23'0 0.0
2018-Jun-22 16:00N 47°39' W 122°23'1 1.4
2018-Jun-22 15:29N 47°40' W 122°24'0 0.0
2018-Jun-22 15:00N 47°40' W 122°24'0 0.0
2018-Jun-22 14:30N 47°40' W 122°24'0 0.0
2018-Jun-22 14:00N 47°40' W 122°24'0 0.0
2018-Jun-22 13:28N 47°40' W 122°24'0 0.0
2018-Jun-22 12:58N 47°40' W 122°24'0 0.0
2018-Jun-22 12:28N 47°40' W 122°24'0 0.0
2018-Jun-22 11:59N 47°40' W 122°24'0 0.0
2018-Jun-22 11:29N 47°40' W 122°24'0 0.0
2018-Jun-22 10:59N 47°40' W 122°24'0 0.0
2018-Jun-22 10:30N 47°40' W 122°24'0 0.0
2018-Jun-22 10:00N 47°40' W 122°24'0 0.0
2018-Jun-22 09:30N 47°40' W 122°24'0 0.0
2018-Jun-22 09:01N 47°40' W 122°24'0 0.0
2018-Jun-22 08:28N 47°40' W 122°24'0 0.0
2018-Jun-22 07:58N 47°40' W 122°24'0 0.0
2018-Jun-22 07:29N 47°40' W 122°24'0 0.0
2018-Jun-22 06:59N 47°40' W 122°24'0 0.0
2018-Jun-22 06:29N 47°40' W 122°24'0 0.0
2018-Jun-22 06:00N 47°40' W 122°24'0 0.0
2018-Jun-22 05:30N 47°40' W 122°24'0 0.0
2018-Jun-22 05:00N 47°40' W 122°24'0 0.0
2018-Jun-22 04:28N 47°40' W 122°24'0 0.0
2018-Jun-22 03:58N 47°40' W 122°24'0 0.0
2018-Jun-22 03:28N 47°40' W 122°24'0 0.0
2018-Jun-22 02:59N 47°40' W 122°24'0 0.0
2018-Jun-22 02:29N 47°40' W 122°24'0 0.0
2018-Jun-22 01:59N 47°40' W 122°24'0 0.0
2018-Jun-22 01:30N 47°40' W 122°24'0 0.0
2018-Jun-22 01:00N 47°40' W 122°24'0 0.0
2018-Jun-22 00:30N 47°40' W 122°24'0 0.0
2018-Jun-21 23:58N 47°40' W 122°24'0 0.0
2018-Jun-21 23:28N 47°40' W 122°24'0 0.0
2018-Jun-21 22:58N 47°40' W 122°24'0 0.0
2018-Jun-21 22:29N 47°40' W 122°24'0 0.0
2018-Jun-21 21:59N 47°40' W 122°24'0 0.0
2018-Jun-21 21:29N 47°40' W 122°24'0 0.0
2018-Jun-21 21:00N 47°40' W 122°24'0 0.0
2018-Jun-21 20:30N 47°40' W 122°24'0 0.0
2018-Jun-21 20:00N 47°40' W 122°24'0 0.0
2018-Jun-21 19:29N 47°40' W 122°24'0 0.0
2018-Jun-21 18:59N 47°40' W 122°24'0 0.0
2018-Jun-21 18:29N 47°40' W 122°24'0 0.0
2018-Jun-21 18:00N 47°40' W 122°24'0 0.0
2018-Jun-21 17:30N 47°40' W 122°24'0 0.0
2018-Jun-21 17:00N 47°40' W 122°24'0 0.0
2018-Jun-21 16:28N 47°40' W 122°24'0 0.0
2018-Jun-21 15:52N 47°40' W 122°24'0 0.0
2018-Jun-21 15:28N 47°40' W 122°24'0 0.0
2018-Jun-21 14:59N 47°40' W 122°24'0 0.0
2018-Jun-21 14:29N 47°40' W 122°24'0 0.0
2018-Jun-21 13:59N 47°40' W 122°24'0 0.0
2018-Jun-21 13:30N 47°40' W 122°24'0 0.0
2018-Jun-21 13:00N 47°40' W 122°24'0 0.0
2018-Jun-21 12:30N 47°40' W 122°24'0 0.0
2018-Jun-21 11:58N 47°40' W 122°24'0 0.0
2018-Jun-21 11:28N 47°40' W 122°24'0 0.0
2018-Jun-21 10:58N 47°40' W 122°24'0 0.0
2018-Jun-21 10:29N 47°40' W 122°24'0 0.0
2018-Jun-21 09:59N 47°40' W 122°24'0 0.0
2018-Jun-21 09:29N 47°40' W 122°24'0 0.0
2018-Jun-21 09:00N 47°40' W 122°24'0 0.0
2018-Jun-21 08:30N 47°40' W 122°24'0 0.0
2018-Jun-21 08:00N 47°40' W 122°24'0 0.0
2018-Jun-21 07:28N 47°40' W 122°24'0 0.0
2018-Jun-21 06:58N 47°40' W 122°24'0 0.0
2018-Jun-21 06:28N 47°40' W 122°24'0 0.0
2018-Jun-21 05:59N 47°40' W 122°24'0 0.0
2018-Jun-21 05:29N 47°40' W 122°24'0 0.0
2018-Jun-21 04:59N 47°40' W 122°24'0 0.0
2018-Jun-21 04:30N 47°40' W 122°24'0 0.0
2018-Jun-21 04:00N 47°40' W 122°24'0 0.0
2018-Jun-21 03:30N 47°40' W 122°24'0 0.0
2018-Jun-21 02:58N 47°40' W 122°24'0 0.0
2018-Jun-21 02:28N 47°40' W 122°24'0 0.0
2018-Jun-21 01:58N 47°40' W 122°24'0 0.0
2018-Jun-21 01:29N 47°40' W 122°24'0 0.0
2018-Jun-21 00:59N 47°40' W 122°24'0 0.0
2018-Jun-21 00:29N 47°40' W 122°24'0 0.0
2018-Jun-21 00:00N 47°40' W 122°24'0 0.0
2018-Jun-20 23:30N 47°40' W 122°24'0 0.0
2018-Jun-20 23:00N 47°40' W 122°24'0 0.0
2018-Jun-20 22:28N 47°40' W 122°24'0 0.0
2018-Jun-20 21:58N 47°40' W 122°24'0 0.0
2018-Jun-20 21:28N 47°40' W 122°24'0 0.0
2018-Jun-20 20:59N 47°40' W 122°24'0 0.0
2018-Jun-20 20:29N 47°40' W 122°24'0 0.0
2018-Jun-20 19:59N 47°40' W 122°24'0 0.0
2018-Jun-20 19:30N 47°40' W 122°24'0 0.0
2018-Jun-20 19:00N 47°40' W 122°24'0 0.0
2018-Jun-20 18:30N 47°40' W 122°24'0 0.0
2018-Jun-20 17:58N 47°40' W 122°24'0 0.0
2018-Jun-20 17:28N 47°40' W 122°24'0 0.0
2018-Jun-20 16:58N 47°40' W 122°24'0 0.0
2018-Jun-20 16:29N 47°40' W 122°24'0 0.0
2018-Jun-20 15:59N 47°40' W 122°24'0 0.0
2018-Jun-20 15:29N 47°40' W 122°24'0 0.0
2018-Jun-20 15:00N 47°40' W 122°24'0 0.0
2018-Jun-20 14:30N 47°40' W 122°24'0 0.0
2018-Jun-20 14:00N 47°40' W 122°24'0 0.0
2018-Jun-20 13:28N 47°40' W 122°24'0 0.0
2018-Jun-20 12:58N 47°40' W 122°24'0 0.0
2018-Jun-20 12:28N 47°40' W 122°24'0 0.0
2018-Jun-20 11:59N 47°40' W 122°24'0 0.0
2018-Jun-20 11:29N 47°40' W 122°24'0 0.0
2018-Jun-20 10:59N 47°40' W 122°24'0 0.0
2018-Jun-20 10:30N 47°40' W 122°24'0 0.0
2018-Jun-20 10:00N 47°40' W 122°24'0 0.0
2018-Jun-20 09:27N 47°40' W 122°24'0 0.0
2018-Jun-20 08:58N 47°40' W 122°24'0 0.0
2018-Jun-20 08:28N 47°40' W 122°24'0 0.0
2018-Jun-20 07:58N 47°40' W 122°24'0 0.0
2018-Jun-20 07:29N 47°40' W 122°24'0 0.0
2018-Jun-20 06:59N 47°40' W 122°24'0 0.0
2018-Jun-20 06:29N 47°40' W 122°24'0 0.0
2018-Jun-20 06:00N 47°40' W 122°24'0 0.0
2018-Jun-20 05:30N 47°40' W 122°24'0 0.0
2018-Jun-20 05:00N 47°40' W 122°24'0 0.0
2018-Jun-20 04:28N 47°40' W 122°24'0 0.0
2018-Jun-20 03:58N 47°40' W 122°24'0 0.0
2018-Jun-20 03:28N 47°40' W 122°24'0 0.0
2018-Jun-20 02:59N 47°40' W 122°24'0 0.0
2018-Jun-20 02:29N 47°40' W 122°24'0 0.0
2018-Jun-20 01:59N 47°40' W 122°24'0 0.0
2018-Jun-20 01:30N 47°40' W 122°24'0 0.0
2018-Jun-20 01:00N 47°40' W 122°24'0 0.0
2018-Jun-20 00:30N 47°40' W 122°24'0 0.0
2018-Jun-19 23:58N 47°40' W 122°24'0 0.0
2018-Jun-19 23:28N 47°40' W 122°24'0 0.0
2018-Jun-19 22:58N 47°40' W 122°24'0 0.0
2018-Jun-19 22:29N 47°40' W 122°24'0 0.0
2018-Jun-19 21:59N 47°40' W 122°24'0 0.0
2018-Jun-19 21:29N 47°40' W 122°24'0 0.0
2018-Jun-19 21:00N 47°40' W 122°24'0 0.0
2018-Jun-19 20:30N 47°40' W 122°24'0 0.0
2018-Jun-19 20:00N 47°40' W 122°24'0 0.0
2018-Jun-19 19:28N 47°40' W 122°24'0 0.0
2018-Jun-19 18:58N 47°40' W 122°24'0 0.0
2018-Jun-19 18:28N 47°40' W 122°24'0 0.0
2018-Jun-19 17:59N 47°40' W 122°24'0 0.0
2018-Jun-19 17:29N 47°40' W 122°24'0 0.0
2018-Jun-19 16:59N 47°40' W 122°24'0 0.0
2018-Jun-19 16:30N 47°40' W 122°24'0 0.0
2018-Jun-19 16:00N 47°40' W 122°24'0 0.0
2018-Jun-19 15:30N 47°40' W 122°24'0 0.0
2018-Jun-19 14:58N 47°40' W 122°24'0 0.0
2018-Jun-19 14:28N 47°40' W 122°24'0 0.0
2018-Jun-19 13:58N 47°40' W 122°24'0 0.0
2018-Jun-19 13:29N 47°40' W 122°24'0 0.0
2018-Jun-19 12:59N 47°40' W 122°24'0 0.0
2018-Jun-19 12:29N 47°40' W 122°24'0 0.0
2018-Jun-19 12:00N 47°40' W 122°24'0 0.0
2018-Jun-19 11:30N 47°40' W 122°24'0 0.0
2018-Jun-19 11:00N 47°40' W 122°24'0 0.0
2018-Jun-19 10:28N 47°40' W 122°24'0 0.0
2018-Jun-19 09:58N 47°40' W 122°24'0 0.0
2018-Jun-19 09:28N 47°40' W 122°24'0 0.0
2018-Jun-19 08:59N 47°40' W 122°24'0 0.0
2018-Jun-19 08:29N 47°40' W 122°24'0 0.0
2018-Jun-19 07:59N 47°40' W 122°24'0 0.0
2018-Jun-19 07:30N 47°40' W 122°24'0 0.0
2018-Jun-19 07:00N 47°40' W 122°24'0 0.0
2018-Jun-19 06:30N 47°40' W 122°24'0 0.0
2018-Jun-19 05:58N 47°40' W 122°24'0 0.0
2018-Jun-19 05:28N 47°40' W 122°24'0 0.0
2018-Jun-19 04:58N 47°40' W 122°24'0 0.0
2018-Jun-19 04:29N 47°40' W 122°24'0 0.0
2018-Jun-19 03:59N 47°40' W 122°24'0 0.0
2018-Jun-19 03:29N 47°40' W 122°24'0 0.0
2018-Jun-19 03:00N 47°40' W 122°24'0 0.0
2018-Jun-19 02:30N 47°40' W 122°24'0 0.0
2018-Jun-19 02:00N 47°40' W 122°24'0 0.0
2018-Jun-19 01:28N 47°40' W 122°24'0 0.0
2018-Jun-19 00:58N 47°40' W 122°24'0 0.0
2018-Jun-19 00:28N 47°40' W 122°24'0 0.0
2018-Jun-18 23:59N 47°40' W 122°24'0 0.0
2018-Jun-18 23:29N 47°40' W 122°24'0 0.0
2018-Jun-18 22:59N 47°40' W 122°24'0 0.0
2018-Jun-18 22:30N 47°40' W 122°24'0 0.0
2018-Jun-18 22:00N 47°40' W 122°24'0 0.0
2018-Jun-18 21:30N 47°40' W 122°24'0 0.0
2018-Jun-18 20:58N 47°40' W 122°24'0 0.0
2018-Jun-18 20:28N 47°40' W 122°24'0 0.0
2018-Jun-18 19:58N 47°40' W 122°24'0 0.0
2018-Jun-18 19:29N 47°40' W 122°24'0 0.0
2018-Jun-18 18:59N 47°40' W 122°24'0 0.0
2018-Jun-18 18:29N 47°40' W 122°24'0 0.0
2018-Jun-18 18:00N 47°40' W 122°24'0 0.0
2018-Jun-18 17:30N 47°40' W 122°24'1 1.5
2018-Jun-18 16:59N 47°39' W 122°23'0 0.0
2018-Jun-18 16:30N 47°39' W 122°23'0 0.0
2018-Jun-18 16:00N 47°39' W 122°23'0 0.0
2018-Jun-18 15:30N 47°39' W 122°23'0 0.0
2018-Jun-18 15:00N 47°39' W 122°23'0 0.0
2018-Jun-18 14:28N 47°39' W 122°23'0 0.0
2018-Jun-18 13:58N 47°39' W 122°23'0 0.0
2018-Jun-18 13:28N 47°39' W 122°23'0 0.0
2018-Jun-18 12:59N 47°39' W 122°23'0 0.0
2018-Jun-18 12:29N 47°39' W 122°23'0 0.0
2018-Jun-18 11:59N 47°39' W 122°23'0 0.0
2018-Jun-18 11:30N 47°39' W 122°23'0 0.0
2018-Jun-18 11:00N 47°39' W 122°23'0 0.0
2018-Jun-18 10:30N 47°39' W 122°23'0 0.0
2018-Jun-18 09:58N 47°39' W 122°23'0 0.0
2018-Jun-18 09:28N 47°39' W 122°23'0 0.0
2018-Jun-18 08:58N 47°39' W 122°23'0 0.0
2018-Jun-18 08:29N 47°39' W 122°23'0 0.0
2018-Jun-18 07:59N 47°39' W 122°23'0 0.0
2018-Jun-18 07:29N 47°39' W 122°23'0 0.0
2018-Jun-18 07:00N 47°39' W 122°23'0 0.0
2018-Jun-18 06:30N 47°39' W 122°23'0 0.0
2018-Jun-18 06:00N 47°39' W 122°23'0 0.0
2018-Jun-18 05:28N 47°39' W 122°23'0 0.0
2018-Jun-18 04:58N 47°39' W 122°23'0 0.0
2018-Jun-18 04:28N 47°39' W 122°23'0 0.0
2018-Jun-18 03:59N 47°39' W 122°23'0 0.0
2018-Jun-18 03:29N 47°39' W 122°23'0 0.0
2018-Jun-18 02:59N 47°39' W 122°23'0 0.0
2018-Jun-18 02:30N 47°39' W 122°23'0 0.0
2018-Jun-18 02:00N 47°39' W 122°23'0 0.0
2018-Jun-18 01:30N 47°39' W 122°23'0 0.0
2018-Jun-18 00:58N 47°39' W 122°23'0 0.0
2018-Jun-18 00:28N 47°39' W 122°23'0 0.0
2018-Jun-17 23:58N 47°39' W 122°23'0 0.0
2018-Jun-17 23:29N 47°39' W 122°23'0 0.0
2018-Jun-17 22:59N 47°39' W 122°23'0 0.0
2018-Jun-17 22:29N 47°39' W 122°23'0 0.0
2018-Jun-17 22:00N 47°39' W 122°23'0 0.0
2018-Jun-17 21:30N 47°39' W 122°23'0 0.0
2018-Jun-17 21:00N 47°39' W 122°23'0 0.0
2018-Jun-17 20:28N 47°39' W 122°23'0 0.0
2018-Jun-17 19:58N 47°39' W 122°23'0 0.0
2018-Jun-17 19:28N 47°39' W 122°23'0 0.0
2018-Jun-17 18:59N 47°39' W 122°23'0 0.0
2018-Jun-17 18:29N 47°39' W 122°23'0 0.0
2018-Jun-17 17:59N 47°39' W 122°23'0 0.0
2018-Jun-17 17:30N 47°39' W 122°23'0 0.0
2018-Jun-17 17:00N 47°39' W 122°23'0 0.0
2018-Jun-17 16:30N 47°39' W 122°23'0 0.0
2018-Jun-17 15:58N 47°39' W 122°23'0 0.0
2018-Jun-17 15:28N 47°39' W 122°23'0 0.0
2018-Jun-17 14:58N 47°39' W 122°23'0 0.0
2018-Jun-17 14:29N 47°39' W 122°23'0 0.0
2018-Jun-17 13:59N 47°39' W 122°23'0 0.0
2018-Jun-17 13:29N 47°39' W 122°23'0 0.0
2018-Jun-17 13:00N 47°39' W 122°23'0 0.0
2018-Jun-17 12:30N 47°39' W 122°23'0 0.0
2018-Jun-17 12:00N 47°39' W 122°23'0 0.0
2018-Jun-17 11:28N 47°39' W 122°23'0 0.0
2018-Jun-17 10:58N 47°39' W 122°23'0 0.0
2018-Jun-17 10:28N 47°39' W 122°23'0 0.0
2018-Jun-17 09:59N 47°39' W 122°23'0 0.0
2018-Jun-17 09:29N 47°39' W 122°23'0 0.0
2018-Jun-17 08:59N 47°39' W 122°23'0 0.0
2018-Jun-17 08:30N 47°39' W 122°23'0 0.0
2018-Jun-17 08:00N 47°39' W 122°23'0 0.0
2018-Jun-17 07:30N 47°39' W 122°23'0 0.0
2018-Jun-17 06:58N 47°39' W 122°23'0 0.0
2018-Jun-17 06:28N 47°39' W 122°23'0 0.0
2018-Jun-17 05:58N 47°39' W 122°23'0 0.0
2018-Jun-17 05:29N 47°39' W 122°23'0 0.0
2018-Jun-17 04:59N 47°39' W 122°23'0 0.0
2018-Jun-17 04:29N 47°39' W 122°23'0 0.0
2018-Jun-17 04:00N 47°39' W 122°23'0 0.0
2018-Jun-17 03:30N 47°39' W 122°23'0 0.0
2018-Jun-17 03:00N 47°39' W 122°23'0 0.0
2018-Jun-17 02:28N 47°39' W 122°23'0 0.0
2018-Jun-17 01:58N 47°39' W 122°23'0 0.0
2018-Jun-17 01:28N 47°39' W 122°23'0 0.0
2018-Jun-17 00:59N 47°39' W 122°23'0 0.0
2018-Jun-17 00:29N 47°39' W 122°23'0 0.0
2018-Jun-16 23:59N 47°39' W 122°23'0 0.0
2018-Jun-16 23:30N 47°39' W 122°23'0 0.0
2018-Jun-16 23:00N 47°39' W 122°23'0 0.0
2018-Jun-16 22:30N 47°39' W 122°23'0 0.0
2018-Jun-16 21:58N 47°39' W 122°23'0 0.0
2018-Jun-16 21:28N 47°39' W 122°23'0 0.0
2018-Jun-16 20:58N 47°39' W 122°23'0 0.0
2018-Jun-16 20:29N 47°39' W 122°23'0 0.0
2018-Jun-16 19:59N 47°39' W 122°23'0 0.0
2018-Jun-16 19:29N 47°39' W 122°23'  
Track history (hours):
 
Tides and Currents Weather Stations Pressure Air Temp Water Temp Dewpoint Dewpoint Depression Visibility Wind Speed Wind Dir Waves Ship Positions

Velero IV

Owner: Velero IV Charters, LLC, Edmonds, WA. More information available from US FCC via Universal Licensing System and Coast Guard Vessel Documentation Center.

Last reported at 2018-Jun-26 19:06 UTC. Time now 2018-Jul-17 09:12 UTC.
Position N 54°44' W 131°09'.
Warning: this ship's position is 20 days out of date.

Length 34 m; draft 4 m.

Type: Cargo ship. MMSI: 367172910.

Date/timePositionNaut miles runAvg speedWind from/ knotsBaromVisibWave heightAir tempDewpointWater temp
2018-Jun-26 19:06N 54°44' W 131°09'2 8.2
2018-Jun-26 18:53N 54°44' W 131°06'4 8.2
2018-Jun-26 18:26N 54°43' W 131°00'4 8.5
2018-Jun-26 18:00N 54°42' W 130°54'4 8.5
2018-Jun-26 17:29N 54°40' W 130°47'8 8.3
2018-Jun-26 16:30N 54°32' W 130°42'4 8.9
2018-Jun-26 16:00N 54°28' W 130°40'4 8.6
2018-Jun-26 15:30N 54°24' W 130°37'4 8.7
2018-Jun-26 15:00N 54°20' W 130°35'4 8.5
2018-Jun-26 14:30N 54°16' W 130°32'4 8.2
2018-Jun-26 14:00N 54°13' W 130°28'4 8.7
2018-Jun-26 13:30N 54°09' W 130°24'5 9.0
2018-Jun-26 13:00N 54°06' W 130°19'4 8.5
2018-Jun-26 12:30N 54°02' W 130°15'4 8.9
2018-Jun-26 12:00N 53°58' W 130°12'4 8.6
2018-Jun-26 11:30N 53°54' W 130°09'4 9.0
2018-Jun-26 11:00N 53°51' W 130°03'4 8.5
2018-Jun-26 10:30N 53°48' W 129°58'4 8.2
2018-Jun-26 10:00N 53°45' W 129°53'84 8.1
2018-Jun-25 23:41N 52°38' W 128°31'3 9.8
2018-Jun-25 23:25N 52°36' W 128°29'4 9.3
2018-Jun-25 22:59N 52°32' W 128°28'4 9.3
2018-Jun-25 22:30N 52°27' W 128°28'5 9.0
2018-Jun-25 22:00N 52°23' W 128°30'5 8.7
2018-Jun-25 21:27N 52°18' W 128°29'4 8.8
2018-Jun-25 21:00N 52°16' W 128°24'5 9.5
2018-Jun-25 20:30N 52°15' W 128°17'5 8.9
2018-Jun-25 19:59N 52°13' W 128°10'4 7.1
2018-Jun-25 19:29N 52°10' W 128°08'4 8.9
2018-Jun-25 19:00N 52°06' W 128°07'5 9.3
2018-Jun-25 18:30N 52°05' W 127°60'4 7.9
2018-Jun-25 18:00N 52°01' W 127°56'4 8.8
2018-Jun-25 17:30N 51°57' W 127°57'5 9.1
2018-Jun-25 17:00N 51°53' W 127°57'5 9.1
2018-Jun-25 16:30N 51°48' W 127°56'4 8.9
2018-Jun-25 16:00N 51°44' W 127°56'5 9.3
2018-Jun-25 15:30N 51°39' W 127°54'5 9.2
2018-Jun-25 15:01N 51°35' W 127°52'5 9.2
2018-Jun-25 14:30N 51°30' W 127°51'5 9.3
2018-Jun-25 14:00N 51°25' W 127°52'5 9.0
2018-Jun-25 13:30N 51°21' W 127°52'4 8.8
2018-Jun-25 13:01N 51°16' W 127°53'4 8.6
2018-Jun-25 12:30N 51°12' W 127°51'6 8.9
2018-Jun-25 11:52N 51°07' W 127°46'3 9.4
2018-Jun-25 11:30N 51°05' W 127°42'5 9.8
2018-Jun-25 11:01N 51°01' W 127°37'5 9.7
2018-Jun-25 10:31N 50°58' W 127°31'510.7
2018-Jun-25 10:01N 50°55' W 127°25'5 9.8
2018-Jun-25 09:29N 50°52' W 127°18'4 9.4
2018-Jun-25 09:00N 50°50' W 127°12'5 9.0
2018-Jun-25 08:30N 50°47' W 127°06'4 8.8
2018-Jun-25 08:01N 50°45' W 126°60'8 8.7
2018-Jun-25 07:08N 50°40' W 126°51'1 8.3
2018-Jun-25 06:57N 50°39' W 126°49'4 8.5
2018-Jun-25 06:27N 50°36' W 126°44'5 7.9
2018-Jun-25 05:46N 50°32' W 126°39'4 9.4
2018-Jun-25 05:23N 50°31' W 126°33'4 9.5
2018-Jun-25 04:59N 50°30' W 126°27'4010.2
2018-Jun-25 01:07N 50°20' W 125°27'110.0
2018-Jun-25 01:00N 50°20' W 125°26'610.9
2018-Jun-25 00:30N 50°15' W 125°23'510.1
2018-Jun-25 00:00N 50°10' W 125°22'4 8.4
2018-Jun-24 23:30N 50°06' W 125°18'4 8.9
2018-Jun-24 23:00N 50°03' W 125°14'4 8.2
2018-Jun-24 22:30N 49°59' W 125°11'4 8.7
2018-Jun-24 22:00N 49°56' W 125°06'4 8.9
2018-Jun-24 21:30N 49°53' W 125°01'5 9.3
2018-Jun-24 21:00N 49°50' W 124°56'5 9.1
2018-Jun-24 20:30N 49°47' W 124°50'5 9.3
2018-Jun-24 20:00N 49°44' W 124°45'5 9.5
2018-Jun-24 19:30N 49°41' W 124°39'5 9.5
2018-Jun-24 18:59N 49°38' W 124°33'5 9.5
2018-Jun-24 18:30N 49°36' W 124°27'14 9.6
2018-Jun-24 17:05N 49°29' W 124°09'1 9.1
2018-Jun-24 17:00N 49°29' W 124°08'24 9.4
2018-Jun-24 14:25N 49°14' W 123°38'4 9.8
2018-Jun-24 14:00N 49°11' W 123°33'5 9.7
2018-Jun-24 13:27N 49°07' W 123°27'4 9.5
2018-Jun-24 12:59N 49°05' W 123°22'4 8.9
2018-Jun-24 12:30N 49°02' W 123°17'4 9.1
2018-Jun-24 12:00N 48°59' W 123°12'4 8.5
2018-Jun-24 11:30N 48°56' W 123°07'10 9.3
2018-Jun-24 10:27N 48°50' W 122°55'510.0
2018-Jun-24 09:55N 48°47' W 122°49'5 9.6
2018-Jun-24 09:27N 48°43' W 122°44'4 9.6
2018-Jun-24 09:00N 48°39' W 122°43'5 9.9
2018-Jun-24 08:30N 48°35' W 122°45'510.3
2018-Jun-24 08:00N 48°29' W 122°44'510.0
2018-Jun-24 07:30N 48°24' W 122°44'6 9.4
2018-Jun-24 06:51N 48°18' W 122°46'4 8.6
2018-Jun-24 06:26N 48°15' W 122°47'20 8.1
2018-Jun-24 03:56N 47°57' W 122°32'4 8.9
2018-Jun-24 03:30N 47°55' W 122°28'4 8.6
2018-Jun-24 03:00N 47°50' W 122°27'4 8.0
2018-Jun-24 02:30N 47°47' W 122°25'4 8.3
2018-Jun-24 02:00N 47°42' W 122°25'3 4.9
2018-Jun-24 01:28N 47°40' W 122°24'1 1.5
2018-Jun-24 01:00N 47°40' W 122°23'0 0.3
2018-Jun-24 00:29N 47°39' W 122°23'0 0.0
2018-Jun-24 00:00N 47°39' W 122°23'0 0.0
2018-Jun-23 23:27N 47°39' W 122°23'0 0.0
2018-Jun-23 23:00N 47°39' W 122°23'0 0.0
2018-Jun-23 22:28N 47°39' W 122°23'0 0.0
2018-Jun-23 21:58N 47°39' W 122°23'0 0.0
2018-Jun-23 21:28N 47°39' W 122°23'0 0.0
2018-Jun-23 20:59N 47°39' W 122°23'0 0.0
2018-Jun-23 20:29N 47°39' W 122°23'0 0.0
2018-Jun-23 19:59N 47°39' W 122°23'0 0.0
2018-Jun-23 19:30N 47°39' W 122°23'0 0.0
2018-Jun-23 19:00N 47°39' W 122°23'0 0.0
2018-Jun-23 18:30N 47°39' W 122°23'0 0.0
2018-Jun-23 17:58N 47°39' W 122°23'0 0.0
2018-Jun-23 17:25N 47°39' W 122°23'0 0.0
2018-Jun-23 16:58N 47°39' W 122°23'0 0.0
2018-Jun-23 16:29N 47°39' W 122°23'0 0.0
2018-Jun-23 15:59N 47°39' W 122°23'0 0.0
2018-Jun-23 15:29N 47°39' W 122°23'0 0.0
2018-Jun-23 15:00N 47°39' W 122°23'0 0.0
2018-Jun-23 14:30N 47°39' W 122°23'0 0.0
2018-Jun-23 14:00N 47°39' W 122°23'0 0.0
2018-Jun-23 13:28N 47°39' W 122°23'0 0.0
2018-Jun-23 12:58N 47°39' W 122°23'0 0.0
2018-Jun-23 12:28N 47°39' W 122°23'0 0.0
2018-Jun-23 11:59N 47°39' W 122°23'0 0.0
2018-Jun-23 11:29N 47°39' W 122°23'0 0.0
2018-Jun-23 10:59N 47°39' W 122°23'0 0.0
2018-Jun-23 10:30N 47°39' W 122°23'0 0.0
2018-Jun-23 10:00N 47°39' W 122°23'0 0.0
2018-Jun-23 09:30N 47°39' W 122°23'0 0.0
2018-Jun-23 08:58N 47°39' W 122°23'0 0.0
2018-Jun-23 08:28N 47°39' W 122°23'0 0.0
2018-Jun-23 07:58N 47°39' W 122°23'0 0.0
2018-Jun-23 07:29N 47°39' W 122°23'0 0.0
2018-Jun-23 06:59N 47°39' W 122°23'0 0.0
2018-Jun-23 06:29N 47°39' W 122°23'0 0.0
2018-Jun-23 06:00N 47°39' W 122°23'0 0.0
2018-Jun-23 05:30N 47°39' W 122°23'0 0.0
2018-Jun-23 05:00N 47°39' W 122°23'0 0.0
2018-Jun-23 04:28N 47°39' W 122°23'0 0.0
2018-Jun-23 03:58N 47°39' W 122°23'0 0.0
2018-Jun-23 03:28N 47°39' W 122°23'0 0.0
2018-Jun-23 02:59N 47°39' W 122°23'0 0.0
2018-Jun-23 02:29N 47°39' W 122°23'0 0.0
2018-Jun-23 01:59N 47°39' W 122°23'0 0.0
2018-Jun-23 01:30N 47°39' W 122°23'0 0.0
2018-Jun-23 01:00N 47°39' W 122°23'0 0.0
2018-Jun-23 00:30N 47°39' W 122°23'0 0.0
2018-Jun-22 23:58N 47°39' W 122°23'0 0.0
2018-Jun-22 23:28N 47°39' W 122°23'0 0.0
2018-Jun-22 22:58N 47°39' W 122°23'0 0.0
2018-Jun-22 22:29N 47°39' W 122°23'0 0.0
2018-Jun-22 21:59N 47°39' W 122°23'0 0.0
2018-Jun-22 21:29N 47°39' W 122°23'0 0.5
2018-Jun-22 21:00N 47°39' W 122°23'0 0.0
2018-Jun-22 20:30N 47°39' W 122°23'0 0.0
2018-Jun-22 20:00N 47°39' W 122°23'0 0.0
2018-Jun-22 19:28N 47°39' W 122°23'0 0.0
2018-Jun-22 18:58N 47°39' W 122°23'0 0.0
2018-Jun-22 18:28N 47°39' W 122°23'0 0.0
2018-Jun-22 17:59N 47°39' W 122°23'0 0.0
2018-Jun-22 17:29N 47°39' W 122°23'0 0.0
2018-Jun-22 16:59N 47°39' W 122°23'0 0.0
2018-Jun-22 16:30N 47°39' W 122°23'0 0.0
2018-Jun-22 16:00N 47°39' W 122°23'1 1.4
2018-Jun-22 15:29N 47°40' W 122°24'0 0.0
2018-Jun-22 15:00N 47°40' W 122°24'0 0.0
2018-Jun-22 14:30N 47°40' W 122°24'0 0.0
2018-Jun-22 14:00N 47°40' W 122°24'0 0.0
2018-Jun-22 13:28N 47°40' W 122°24'0 0.0
2018-Jun-22 12:58N 47°40' W 122°24'0 0.0
2018-Jun-22 12:28N 47°40' W 122°24'0 0.0
2018-Jun-22 11:59N 47°40' W 122°24'0 0.0
2018-Jun-22 11:29N 47°40' W 122°24'0 0.0
2018-Jun-22 10:59N 47°40' W 122°24'0 0.0
2018-Jun-22 10:30N 47°40' W 122°24'0 0.0
2018-Jun-22 10:00N 47°40' W 122°24'0 0.0
2018-Jun-22 09:30N 47°40' W 122°24'0 0.0
2018-Jun-22 09:01N 47°40' W 122°24'0 0.0
2018-Jun-22 08:28N 47°40' W 122°24'0 0.0
2018-Jun-22 07:58N 47°40' W 122°24'0 0.0
2018-Jun-22 07:29N 47°40' W 122°24'0 0.0
2018-Jun-22 06:59N 47°40' W 122°24'0 0.0
2018-Jun-22 06:29N 47°40' W 122°24'0 0.0
2018-Jun-22 06:00N 47°40' W 122°24'0 0.0
2018-Jun-22 05:30N 47°40' W 122°24'0 0.0
2018-Jun-22 05:00N 47°40' W 122°24'0 0.0
2018-Jun-22 04:28N 47°40' W 122°24'0 0.0
2018-Jun-22 03:58N 47°40' W 122°24'0 0.0
2018-Jun-22 03:28N 47°40' W 122°24'0 0.0
2018-Jun-22 02:59N 47°40' W 122°24'0 0.0
2018-Jun-22 02:29N 47°40' W 122°24'0 0.0
2018-Jun-22 01:59N 47°40' W 122°24'0 0.0
2018-Jun-22 01:30N 47°40' W 122°24'0 0.0
2018-Jun-22 01:00N 47°40' W 122°24'0 0.0
2018-Jun-22 00:30N 47°40' W 122°24'0 0.0
2018-Jun-21 23:58N 47°40' W 122°24'0 0.0
2018-Jun-21 23:28N 47°40' W 122°24'0 0.0
2018-Jun-21 22:58N 47°40' W 122°24'0 0.0
2018-Jun-21 22:29N 47°40' W 122°24'0 0.0
2018-Jun-21 21:59N 47°40' W 122°24'0 0.0
2018-Jun-21 21:29N 47°40' W 122°24'0 0.0
2018-Jun-21 21:00N 47°40' W 122°24'0 0.0
2018-Jun-21 20:30N 47°40' W 122°24'0 0.0
2018-Jun-21 20:00N 47°40' W 122°24'0 0.0
2018-Jun-21 19:29N 47°40' W 122°24'0 0.0
2018-Jun-21 18:59N 47°40' W 122°24'0 0.0
2018-Jun-21 18:29N 47°40' W 122°24'0 0.0
2018-Jun-21 18:00N 47°40' W 122°24'0 0.0
2018-Jun-21 17:30N 47°40' W 122°24'0 0.0
2018-Jun-21 17:00N 47°40' W 122°24'0 0.0
2018-Jun-21 16:28N 47°40' W 122°24'0 0.0
2018-Jun-21 15:52N 47°40' W 122°24'0 0.0
2018-Jun-21 15:28N 47°40' W 122°24'0 0.0
2018-Jun-21 14:59N 47°40' W 122°24'0 0.0
2018-Jun-21 14:29N 47°40' W 122°24'0 0.0
2018-Jun-21 13:59N 47°40' W 122°24'0 0.0
2018-Jun-21 13:30N 47°40' W 122°24'0 0.0
2018-Jun-21 13:00N 47°40' W 122°24'0 0.0
2018-Jun-21 12:30N 47°40' W 122°24'0 0.0
2018-Jun-21 11:58N 47°40' W 122°24'0 0.0
2018-Jun-21 11:28N 47°40' W 122°24'0 0.0
2018-Jun-21 10:58N 47°40' W 122°24'0 0.0
2018-Jun-21 10:29N 47°40' W 122°24'0 0.0
2018-Jun-21 09:59N 47°40' W 122°24'0 0.0
2018-Jun-21 09:29N 47°40' W 122°24'0 0.0
2018-Jun-21 09:00N 47°40' W 122°24'0 0.0
2018-Jun-21 08:30N 47°40' W 122°24'0 0.0
2018-Jun-21 08:00N 47°40' W 122°24'0 0.0
2018-Jun-21 07:28N 47°40' W 122°24'0 0.0
2018-Jun-21 06:58N 47°40' W 122°24'0 0.0
2018-Jun-21 06:28N 47°40' W 122°24'0 0.0
2018-Jun-21 05:59N 47°40' W 122°24'0 0.0
2018-Jun-21 05:29N 47°40' W 122°24'0 0.0
2018-Jun-21 04:59N 47°40' W 122°24'0 0.0
2018-Jun-21 04:30N 47°40' W 122°24'0 0.0
2018-Jun-21 04:00N 47°40' W 122°24'0 0.0
2018-Jun-21 03:30N 47°40' W 122°24'0 0.0
2018-Jun-21 02:58N 47°40' W 122°24'0 0.0
2018-Jun-21 02:28N 47°40' W 122°24'0 0.0
2018-Jun-21 01:58N 47°40' W 122°24'0 0.0
2018-Jun-21 01:29N 47°40' W 122°24'0 0.0
2018-Jun-21 00:59N 47°40' W 122°24'0 0.0
2018-Jun-21 00:29N 47°40' W 122°24'0 0.0
2018-Jun-21 00:00N 47°40' W 122°24'0 0.0
2018-Jun-20 23:30N 47°40' W 122°24'0 0.0
2018-Jun-20 23:00N 47°40' W 122°24'0 0.0
2018-Jun-20 22:28N 47°40' W 122°24'0 0.0
2018-Jun-20 21:58N 47°40' W 122°24'0 0.0
2018-Jun-20 21:28N 47°40' W 122°24'0 0.0
2018-Jun-20 20:59N 47°40' W 122°24'0 0.0
2018-Jun-20 20:29N 47°40' W 122°24'0 0.0
2018-Jun-20 19:59N 47°40' W 122°24'0 0.0
2018-Jun-20 19:30N 47°40' W 122°24'0 0.0
2018-Jun-20 19:00N 47°40' W 122°24'0 0.0
2018-Jun-20 18:30N 47°40' W 122°24'0 0.0
2018-Jun-20 17:58N 47°40' W 122°24'0 0.0
2018-Jun-20 17:28N 47°40' W 122°24'0 0.0
2018-Jun-20 16:58N 47°40' W 122°24'0 0.0
2018-Jun-20 16:29N 47°40' W 122°24'0 0.0
2018-Jun-20 15:59N 47°40' W 122°24'0 0.0
2018-Jun-20 15:29N 47°40' W 122°24'0 0.0
2018-Jun-20 15:00N 47°40' W 122°24'0 0.0
2018-Jun-20 14:30N 47°40' W 122°24'0 0.0
2018-Jun-20 14:00N 47°40' W 122°24'0 0.0
2018-Jun-20 13:28N 47°40' W 122°24'0 0.0
2018-Jun-20 12:58N 47°40' W 122°24'0 0.0
2018-Jun-20 12:28N 47°40' W 122°24'0 0.0
2018-Jun-20 11:59N 47°40' W 122°24'0 0.0
2018-Jun-20 11:29N 47°40' W 122°24'0 0.0
2018-Jun-20 10:59N 47°40' W 122°24'0 0.0
2018-Jun-20 10:30N 47°40' W 122°24'0 0.0
2018-Jun-20 10:00N 47°40' W 122°24'0 0.0
2018-Jun-20 09:27N 47°40' W 122°24'0 0.0
2018-Jun-20 08:58N 47°40' W 122°24'0 0.0
2018-Jun-20 08:28N 47°40' W 122°24'0 0.0
2018-Jun-20 07:58N 47°40' W 122°24'0 0.0
2018-Jun-20 07:29N 47°40' W 122°24'0 0.0
2018-Jun-20 06:59N 47°40' W 122°24'0 0.0
2018-Jun-20 06:29N 47°40' W 122°24'0 0.0
2018-Jun-20 06:00N 47°40' W 122°24'0 0.0
2018-Jun-20 05:30N 47°40' W 122°24'0 0.0
2018-Jun-20 05:00N 47°40' W 122°24'0 0.0
2018-Jun-20 04:28N 47°40' W 122°24'0 0.0
2018-Jun-20 03:58N 47°40' W 122°24'0 0.0
2018-Jun-20 03:28N 47°40' W 122°24'0 0.0
2018-Jun-20 02:59N 47°40' W 122°24'0 0.0
2018-Jun-20 02:29N 47°40' W 122°24'0 0.0
2018-Jun-20 01:59N 47°40' W 122°24'0 0.0
2018-Jun-20 01:30N 47°40' W 122°24'0 0.0
2018-Jun-20 01:00N 47°40' W 122°24'0 0.0
2018-Jun-20 00:30N 47°40' W 122°24'0 0.0
2018-Jun-19 23:58N 47°40' W 122°24'0 0.0
2018-Jun-19 23:28N 47°40' W 122°24'0 0.0
2018-Jun-19 22:58N 47°40' W 122°24'0 0.0
2018-Jun-19 22:29N 47°40' W 122°24'0 0.0
2018-Jun-19 21:59N 47°40' W 122°24'0 0.0
2018-Jun-19 21:29N 47°40' W 122°24'0 0.0
2018-Jun-19 21:00N 47°40' W 122°24'0 0.0
2018-Jun-19 20:30N 47°40' W 122°24'0 0.0
2018-Jun-19 20:00N 47°40' W 122°24'0 0.0
2018-Jun-19 19:28N 47°40' W 122°24'0 0.0
2018-Jun-19 18:58N 47°40' W 122°24'0 0.0
2018-Jun-19 18:28N 47°40' W 122°24'0 0.0
2018-Jun-19 17:59N 47°40' W 122°24'0 0.0
2018-Jun-19 17:29N 47°40' W 122°24'0 0.0
2018-Jun-19 16:59N 47°40' W 122°24'0 0.0
2018-Jun-19 16:30N 47°40' W 122°24'0 0.0
2018-Jun-19 16:00N 47°40' W 122°24'0 0.0
2018-Jun-19 15:30N 47°40' W 122°24'0 0.0
2018-Jun-19 14:58N 47°40' W 122°24'0 0.0
2018-Jun-19 14:28N 47°40' W 122°24'0 0.0
2018-Jun-19 13:58N 47°40' W 122°24'0 0.0
2018-Jun-19 13:29N 47°40' W 122°24'0 0.0
2018-Jun-19 12:59N 47°40' W 122°24'0 0.0
2018-Jun-19 12:29N 47°40' W 122°24'0 0.0
2018-Jun-19 12:00N 47°40' W 122°24'0 0.0
2018-Jun-19 11:30N 47°40' W 122°24'0 0.0
2018-Jun-19 11:00N 47°40' W 122°24'0 0.0
2018-Jun-19 10:28N 47°40' W 122°24'0 0.0
2018-Jun-19 09:58N 47°40' W 122°24'0 0.0
2018-Jun-19 09:28N 47°40' W 122°24'0 0.0
2018-Jun-19 08:59N 47°40' W 122°24'0 0.0
2018-Jun-19 08:29N 47°40' W 122°24'0 0.0
2018-Jun-19 07:59N 47°40' W 122°24'0 0.0
2018-Jun-19 07:30N 47°40' W 122°24'0 0.0
2018-Jun-19 07:00N 47°40' W 122°24'0 0.0
2018-Jun-19 06:30N 47°40' W 122°24'0 0.0
2018-Jun-19 05:58N 47°40' W 122°24'0 0.0
2018-Jun-19 05:28N 47°40' W 122°24'0 0.0
2018-Jun-19 04:58N 47°40' W 122°24'0 0.0
2018-Jun-19 04:29N 47°40' W 122°24'0 0.0
2018-Jun-19 03:59N 47°40' W 122°24'0 0.0
2018-Jun-19 03:29N 47°40' W 122°24'0 0.0
2018-Jun-19 03:00N 47°40' W 122°24'0 0.0
2018-Jun-19 02:30N 47°40' W 122°24'0 0.0
2018-Jun-19 02:00N 47°40' W 122°24'0 0.0
2018-Jun-19 01:28N 47°40' W 122°24'0 0.0
2018-Jun-19 00:58N 47°40' W 122°24'0 0.0
2018-Jun-19 00:28N 47°40' W 122°24'0 0.0
2018-Jun-18 23:59N 47°40' W 122°24'0 0.0
2018-Jun-18 23:29N 47°40' W 122°24'0 0.0
2018-Jun-18 22:59N 47°40' W 122°24'0 0.0
2018-Jun-18 22:30N 47°40' W 122°24'0 0.0
2018-Jun-18 22:00N 47°40' W 122°24'0 0.0
2018-Jun-18 21:30N 47°40' W 122°24'0 0.0
2018-Jun-18 20:58N 47°40' W 122°24'0 0.0
2018-Jun-18 20:28N 47°40' W 122°24'0 0.0
2018-Jun-18 19:58N 47°40' W 122°24'0 0.0
2018-Jun-18 19:29N 47°40' W 122°24'0 0.0
2018-Jun-18 18:59N 47°40' W 122°24'0 0.0
2018-Jun-18 18:29N 47°40' W 122°24'0 0.0
2018-Jun-18 18:00N 47°40' W 122°24'0 0.0
2018-Jun-18 17:30N 47°40' W 122°24'1 1.5
2018-Jun-18 16:59N 47°39' W 122°23'0 0.0
2018-Jun-18 16:30N 47°39' W 122°23'0 0.0
2018-Jun-18 16:00N 47°39' W 122°23'0 0.0
2018-Jun-18 15:30N 47°39' W 122°23'0 0.0
2018-Jun-18 15:00N 47°39' W 122°23'0 0.0
2018-Jun-18 14:28N 47°39' W 122°23'0 0.0
2018-Jun-18 13:58N 47°39' W 122°23'0 0.0
2018-Jun-18 13:28N 47°39' W 122°23'0 0.0
2018-Jun-18 12:59N 47°39' W 122°23'0 0.0
2018-Jun-18 12:29N 47°39' W 122°23'0 0.0
2018-Jun-18 11:59N 47°39' W 122°23'0 0.0
2018-Jun-18 11:30N 47°39' W 122°23'0 0.0
2018-Jun-18 11:00N 47°39' W 122°23'0 0.0
2018-Jun-18 10:30N 47°39' W 122°23'0 0.0
2018-Jun-18 09:58N 47°39' W 122°23'0 0.0
2018-Jun-18 09:28N 47°39' W 122°23'0 0.0
2018-Jun-18 08:58N 47°39' W 122°23'0 0.0
2018-Jun-18 08:29N 47°39' W 122°23'0 0.0
2018-Jun-18 07:59N 47°39' W 122°23'0 0.0
2018-Jun-18 07:29N 47°39' W 122°23'0 0.0
2018-Jun-18 07:00N 47°39' W 122°23'0 0.0
2018-Jun-18 06:30N 47°39' W 122°23'0 0.0
2018-Jun-18 06:00N 47°39' W 122°23'0 0.0
2018-Jun-18 05:28N 47°39' W 122°23'0 0.0
2018-Jun-18 04:58N 47°39' W 122°23'0 0.0
2018-Jun-18 04:28N 47°39' W 122°23'0 0.0
2018-Jun-18 03:59N 47°39' W 122°23'0 0.0
2018-Jun-18 03:29N 47°39' W 122°23'0 0.0
2018-Jun-18 02:59N 47°39' W 122°23'0 0.0
2018-Jun-18 02:30N 47°39' W 122°23'0 0.0
2018-Jun-18 02:00N 47°39' W 122°23'0 0.0
2018-Jun-18 01:30N 47°39' W 122°23'0 0.0
2018-Jun-18 00:58N 47°39' W 122°23'0 0.0
2018-Jun-18 00:28N 47°39' W 122°23'0 0.0
2018-Jun-17 23:58N 47°39' W 122°23'0 0.0
2018-Jun-17 23:29N 47°39' W 122°23'0 0.0
2018-Jun-17 22:59N 47°39' W 122°23'0 0.0
2018-Jun-17 22:29N 47°39' W 122°23'0 0.0
2018-Jun-17 22:00N 47°39' W 122°23'0 0.0
2018-Jun-17 21:30N 47°39' W 122°23'0 0.0
2018-Jun-17 21:00N 47°39' W 122°23'0 0.0
2018-Jun-17 20:28N 47°39' W 122°23'0 0.0
2018-Jun-17 19:58N 47°39' W 122°23'0 0.0
2018-Jun-17 19:28N 47°39' W 122°23'0 0.0
2018-Jun-17 18:59N 47°39' W 122°23'0 0.0
2018-Jun-17 18:29N 47°39' W 122°23'0 0.0
2018-Jun-17 17:59N 47°39' W 122°23'0 0.0
2018-Jun-17 17:30N 47°39' W 122°23'0 0.0
2018-Jun-17 17:00N 47°39' W 122°23'0 0.0
2018-Jun-17 16:30N 47°39' W 122°23'0 0.0
2018-Jun-17 15:58N 47°39' W 122°23'0 0.0
2018-Jun-17 15:28N 47°39' W 122°23'0 0.0
2018-Jun-17 14:58N 47°39' W 122°23'0 0.0
2018-Jun-17 14:29N 47°39' W 122°23'0 0.0
2018-Jun-17 13:59N 47°39' W 122°23'0 0.0
2018-Jun-17 13:29N 47°39' W 122°23'0 0.0
2018-Jun-17 13:00N 47°39' W 122°23'0 0.0
2018-Jun-17 12:30N 47°39' W 122°23'0 0.0
2018-Jun-17 12:00N 47°39' W 122°23'0 0.0
2018-Jun-17 11:28N 47°39' W 122°23'0 0.0
2018-Jun-17 10:58N 47°39' W 122°23'0 0.0
2018-Jun-17 10:28N 47°39' W 122°23'0 0.0
2018-Jun-17 09:59N 47°39' W 122°23'0 0.0
2018-Jun-17 09:29N 47°39' W 122°23'0 0.0
2018-Jun-17 08:59N 47°39' W 122°23'0 0.0
2018-Jun-17 08:30N 47°39' W 122°23'0 0.0
2018-Jun-17 08:00N 47°39' W 122°23'0 0.0
2018-Jun-17 07:30N 47°39' W 122°23'0 0.0
2018-Jun-17 06:58N 47°39' W 122°23'0 0.0
2018-Jun-17 06:28N 47°39' W 122°23'0 0.0
2018-Jun-17 05:58N 47°39' W 122°23'0 0.0
2018-Jun-17 05:29N 47°39' W 122°23'0 0.0
2018-Jun-17 04:59N 47°39' W 122°23'0 0.0
2018-Jun-17 04:29N 47°39' W 122°23'0 0.0
2018-Jun-17 04:00N 47°39' W 122°23'0 0.0
2018-Jun-17 03:30N 47°39' W 122°23'0 0.0
2018-Jun-17 03:00N 47°39' W 122°23'0 0.0
2018-Jun-17 02:28N 47°39' W 122°23'0 0.0
2018-Jun-17 01:58N 47°39' W 122°23'0 0.0
2018-Jun-17 01:28N 47°39' W 122°23'0 0.0
2018-Jun-17 00:59N 47°39' W 122°23'0 0.0
2018-Jun-17 00:29N 47°39' W 122°23'0 0.0
2018-Jun-16 23:59N 47°39' W 122°23'0 0.0
2018-Jun-16 23:30N 47°39' W 122°23'0 0.0
2018-Jun-16 23:00N 47°39' W 122°23'0 0.0
2018-Jun-16 22:30N 47°39' W 122°23'0 0.0
2018-Jun-16 21:58N 47°39' W 122°23'0 0.0
2018-Jun-16 21:28N 47°39' W 122°23'0 0.0
2018-Jun-16 20:58N 47°39' W 122°23'0 0.0
2018-Jun-16 20:29N 47°39' W 122°23'0 0.0
2018-Jun-16 19:59N 47°39' W 122°23'0 0.0
2018-Jun-16 19:29N 47°39' W 122°23'  

Dump ship's entire track history